sensor_id;sensor_type;location;lat;lon;timestamp;P1;durP1;ratioP1;P2;durP2;ratioP2
82005;SDS011;71529;47.484;19.064;2024-03-08T00:02:09;14.95;;;11.38;;
82005;SDS011;71529;47.484;19.064;2024-03-08T00:04:38;23.17;;;11.68;;
82005;SDS011;71529;47.484;19.064;2024-03-08T00:07:07;27.30;;;14.48;;
82005;SDS011;71529;47.484;19.064;2024-03-08T00:09:36;18.45;;;13.30;;
82005;SDS011;71529;47.484;19.064;2024-03-08T00:12:06;16.77;;;11.38;;
82005;SDS011;71529;47.484;19.064;2024-03-08T00:14:35;21.42;;;12.40;;
82005;SDS011;71529;47.484;19.064;2024-03-08T00:17:08;19.05;;;12.65;;
82005;SDS011;71529;47.484;19.064;2024-03-08T00:19:37;17.70;;;12.13;;
82005;SDS011;71529;47.484;19.064;2024-03-08T00:22:07;17.63;;;12.10;;
82005;SDS011;71529;47.484;19.064;2024-03-08T00:24:37;20.67;;;13.10;;
82005;SDS011;71529;47.484;19.064;2024-03-08T00:27:06;20.52;;;12.32;;
82005;SDS011;71529;47.484;19.064;2024-03-08T00:29:35;17.27;;;12.32;;
82005;SDS011;71529;47.484;19.064;2024-03-08T00:32:04;17.52;;;12.75;;
82005;SDS011;71529;47.484;19.064;2024-03-08T00:34:37;16.50;;;12.75;;
82005;SDS011;71529;47.484;19.064;2024-03-08T00:37:06;22.15;;;12.23;;
82005;SDS011;71529;47.484;19.064;2024-03-08T00:39:36;20.63;;;13.90;;
82005;SDS011;71529;47.484;19.064;2024-03-08T00:42:20;19.88;;;13.73;;
82005;SDS011;71529;47.484;19.064;2024-03-08T00:44:50;19.25;;;12.55;;
82005;SDS011;71529;47.484;19.064;2024-03-08T00:47:19;19.73;;;13.40;;
82005;SDS011;71529;47.484;19.064;2024-03-08T00:49:51;24.42;;;13.82;;
82005;SDS011;71529;47.484;19.064;2024-03-08T00:52:22;20.27;;;13.73;;
82005;SDS011;71529;47.484;19.064;2024-03-08T00:54:52;19.20;;;12.65;;
82005;SDS011;71529;47.484;19.064;2024-03-08T00:57:21;15.23;;;12.10;;
82005;SDS011;71529;47.484;19.064;2024-03-08T00:59:51;17.83;;;12.70;;
82005;SDS011;71529;47.484;19.064;2024-03-08T01:02:20;19.77;;;13.10;;
82005;SDS011;71529;47.484;19.064;2024-03-08T01:04:52;21.63;;;14.88;;
82005;SDS011;71529;47.484;19.064;2024-03-08T01:07:21;23.48;;;14.48;;
82005;SDS011;71529;47.484;19.064;2024-03-08T01:09:50;22.58;;;15.95;;
82005;SDS011;71529;47.484;19.064;2024-03-08T01:12:19;23.15;;;15.23;;
82005;SDS011;71529;47.484;19.064;2024-03-08T01:14:48;23.08;;;15.10;;
82005;SDS011;71529;47.484;19.064;2024-03-08T01:17:17;25.75;;;14.50;;
82005;SDS011;71529;47.484;19.064;2024-03-08T01:19:46;24.67;;;15.68;;
82005;SDS011;71529;47.484;19.064;2024-03-08T01:22:17;21.08;;;15.00;;
82005;SDS011;71529;47.484;19.064;2024-03-08T01:24:46;24.00;;;15.15;;
82005;SDS011;71529;47.484;19.064;2024-03-08T01:27:15;20.30;;;14.00;;
82005;SDS011;71529;47.484;19.064;2024-03-08T01:29:44;26.35;;;15.23;;
82005;SDS011;71529;47.484;19.064;2024-03-08T01:32:14;27.20;;;16.50;;
82005;SDS011;71529;47.484;19.064;2024-03-08T01:34:42;24.25;;;15.13;;
82005;SDS011;71529;47.484;19.064;2024-03-08T01:37:12;24.95;;;17.55;;
82005;SDS011;71529;47.484;19.064;2024-03-08T01:39:46;29.35;;;16.05;;
82005;SDS011;71529;47.484;19.064;2024-03-08T01:42:15;27.08;;;16.15;;
82005;SDS011;71529;47.484;19.064;2024-03-08T01:44:44;27.15;;;16.90;;
82005;SDS011;71529;47.484;19.064;2024-03-08T01:47:13;24.02;;;16.25;;
82005;SDS011;71529;47.484;19.064;2024-03-08T01:49:43;25.27;;;15.63;;
82005;SDS011;71529;47.484;19.064;2024-03-08T01:52:12;28.55;;;16.90;;
82005;SDS011;71529;47.484;19.064;2024-03-08T01:54:40;27.95;;;16.92;;
82005;SDS011;71529;47.484;19.064;2024-03-08T01:57:12;22.85;;;15.38;;
82005;SDS011;71529;47.484;19.064;2024-03-08T01:59:42;25.60;;;16.13;;
82005;SDS011;71529;47.484;19.064;2024-03-08T02:02:11;26.48;;;16.58;;
82005;SDS011;71529;47.484;19.064;2024-03-08T02:04:45;22.67;;;15.73;;
82005;SDS011;71529;47.484;19.064;2024-03-08T02:07:15;30.30;;;17.30;;
82005;SDS011;71529;47.484;19.064;2024-03-08T02:09:44;31.10;;;17.90;;
82005;SDS011;71529;47.484;19.064;2024-03-08T02:12:16;29.75;;;17.73;;
82005;SDS011;71529;47.484;19.064;2024-03-08T02:14:46;27.77;;;17.88;;
82005;SDS011;71529;47.484;19.064;2024-03-08T02:17:15;27.70;;;18.02;;
82005;SDS011;71529;47.484;19.064;2024-03-08T02:19:44;30.30;;;17.98;;
82005;SDS011;71529;47.484;19.064;2024-03-08T02:22:16;40.13;;;24.52;;
82005;SDS011;71529;47.484;19.064;2024-03-08T02:24:45;27.85;;;18.15;;
82005;SDS011;71529;47.484;19.064;2024-03-08T02:27:14;31.40;;;18.98;;
82005;SDS011;71529;47.484;19.064;2024-03-08T02:29:43;33.88;;;19.73;;
82005;SDS011;71529;47.484;19.064;2024-03-08T02:32:13;30.60;;;19.15;;
82005;SDS011;71529;47.484;19.064;2024-03-08T02:34:43;30.40;;;19.40;;
82005;SDS011;71529;47.484;19.064;2024-03-08T02:37:12;31.02;;;19.05;;
82005;SDS011;71529;47.484;19.064;2024-03-08T02:39:43;38.45;;;20.40;;
82005;SDS011;71529;47.484;19.064;2024-03-08T02:42:13;32.80;;;19.75;;
82005;SDS011;71529;47.484;19.064;2024-03-08T02:44:42;35.20;;;20.58;;
82005;SDS011;71529;47.484;19.064;2024-03-08T02:47:12;34.08;;;22.08;;
82005;SDS011;71529;47.484;19.064;2024-03-08T02:49:41;36.95;;;22.70;;
82005;SDS011;71529;47.484;19.064;2024-03-08T02:52:10;32.33;;;19.77;;
82005;SDS011;71529;47.484;19.064;2024-03-08T02:54:38;31.88;;;20.08;;
82005;SDS011;71529;47.484;19.064;2024-03-08T02:57:11;40.10;;;23.50;;
82005;SDS011;71529;47.484;19.064;2024-03-08T02:59:40;37.47;;;21.88;;
82005;SDS011;71529;47.484;19.064;2024-03-08T03:02:09;32.90;;;21.70;;
82005;SDS011;71529;47.484;19.064;2024-03-08T03:04:39;32.72;;;20.35;;
82005;SDS011;71529;47.484;19.064;2024-03-08T03:07:08;32.92;;;21.30;;
82005;SDS011;71529;47.484;19.064;2024-03-08T03:09:37;32.55;;;22.35;;
82005;SDS011;71529;47.484;19.064;2024-03-08T03:12:06;37.63;;;21.55;;
82005;SDS011;71529;47.484;19.064;2024-03-08T03:14:39;33.53;;;20.75;;
82005;SDS011;71529;47.484;19.064;2024-03-08T03:17:08;38.13;;;21.38;;
82005;SDS011;71529;47.484;19.064;2024-03-08T03:19:40;39.20;;;21.90;;
82005;SDS011;71529;47.484;19.064;2024-03-08T03:22:09;39.97;;;20.05;;
82005;SDS011;71529;47.484;19.064;2024-03-08T03:24:38;37.83;;;23.00;;
82005;SDS011;71529;47.484;19.064;2024-03-08T03:27:08;35.53;;;21.65;;
82005;SDS011;71529;47.484;19.064;2024-03-08T03:29:42;36.08;;;22.55;;
82005;SDS011;71529;47.484;19.064;2024-03-08T03:32:13;36.45;;;21.45;;
82005;SDS011;71529;47.484;19.064;2024-03-08T03:34:44;36.95;;;21.92;;
82005;SDS011;71529;47.484;19.064;2024-03-08T03:37:13;33.63;;;20.80;;
82005;SDS011;71529;47.484;19.064;2024-03-08T03:39:44;36.65;;;23.27;;
82005;SDS011;71529;47.484;19.064;2024-03-08T03:42:19;37.97;;;22.52;;
82005;SDS011;71529;47.484;19.064;2024-03-08T03:44:52;36.85;;;22.15;;
82005;SDS011;71529;47.484;19.064;2024-03-08T03:47:21;37.83;;;21.85;;
82005;SDS011;71529;47.484;19.064;2024-03-08T03:49:50;44.92;;;23.42;;
82005;SDS011;71529;47.484;19.064;2024-03-08T03:52:20;36.88;;;21.40;;
82005;SDS011;71529;47.484;19.064;2024-03-08T03:54:49;43.42;;;24.67;;
82005;SDS011;71529;47.484;19.064;2024-03-08T03:57:18;40.55;;;24.08;;
82005;SDS011;71529;47.484;19.064;2024-03-08T03:59:52;39.30;;;22.83;;
82005;SDS011;71529;47.484;19.064;2024-03-08T04:02:24;37.03;;;21.30;;
82005;SDS011;71529;47.484;19.064;2024-03-08T04:04:53;38.05;;;22.60;;
82005;SDS011;71529;47.484;19.064;2024-03-08T04:07:22;37.13;;;22.90;;
82005;SDS011;71529;47.484;19.064;2024-03-08T04:09:51;40.58;;;22.40;;
82005;SDS011;71529;47.484;19.064;2024-03-08T04:12:20;42.58;;;24.50;;
82005;SDS011;71529;47.484;19.064;2024-03-08T04:14:49;36.17;;;22.45;;
82005;SDS011;71529;47.484;19.064;2024-03-08T04:17:21;40.72;;;22.50;;
82005;SDS011;71529;47.484;19.064;2024-03-08T04:19:51;33.72;;;22.27;;
82005;SDS011;71529;47.484;19.064;2024-03-08T04:22:20;34.53;;;22.25;;
82005;SDS011;71529;47.484;19.064;2024-03-08T04:24:49;37.50;;;22.42;;
82005;SDS011;71529;47.484;19.064;2024-03-08T04:27:18;39.38;;;24.33;;
82005;SDS011;71529;47.484;19.064;2024-03-08T04:29:47;36.03;;;22.20;;
82005;SDS011;71529;47.484;19.064;2024-03-08T04:32:15;39.38;;;22.33;;
82005;SDS011;71529;47.484;19.064;2024-03-08T04:34:47;36.90;;;22.77;;
82005;SDS011;71529;47.484;19.064;2024-03-08T04:37:16;45.35;;;23.90;;
82005;SDS011;71529;47.484;19.064;2024-03-08T04:39:47;42.83;;;23.17;;
82005;SDS011;71529;47.484;19.064;2024-03-08T04:42:17;42.67;;;23.52;;
82005;SDS011;71529;47.484;19.064;2024-03-08T04:44:46;45.38;;;26.73;;
82005;SDS011;71529;47.484;19.064;2024-03-08T04:47:15;38.50;;;23.98;;
82005;SDS011;71529;47.484;19.064;2024-03-08T04:49:47;42.58;;;23.83;;
82005;SDS011;71529;47.484;19.064;2024-03-08T04:52:16;40.00;;;22.45;;
82005;SDS011;71529;47.484;19.064;2024-03-08T04:54:45;44.45;;;24.25;;
82005;SDS011;71529;47.484;19.064;2024-03-08T04:57:14;39.53;;;23.42;;
82005;SDS011;71529;47.484;19.064;2024-03-08T04:59:44;42.45;;;23.45;;
82005;SDS011;71529;47.484;19.064;2024-03-08T05:02:13;38.67;;;21.60;;
82005;SDS011;71529;47.484;19.064;2024-03-08T05:04:44;42.70;;;24.48;;
82005;SDS011;71529;47.484;19.064;2024-03-08T05:07:15;40.67;;;24.35;;
82005;SDS011;71529;47.484;19.064;2024-03-08T05:09:45;39.55;;;23.02;;
82005;SDS011;71529;47.484;19.064;2024-03-08T05:12:17;35.13;;;21.95;;
82005;SDS011;71529;47.484;19.064;2024-03-08T05:14:45;42.22;;;23.05;;
82005;SDS011;71529;47.484;19.064;2024-03-08T05:17:15;39.45;;;22.27;;
82005;SDS011;71529;47.484;19.064;2024-03-08T05:19:47;40.33;;;23.33;;
82005;SDS011;71529;47.484;19.064;2024-03-08T05:22:15;35.92;;;23.23;;
82005;SDS011;71529;47.484;19.064;2024-03-08T05:24:44;39.03;;;22.80;;
82005;SDS011;71529;47.484;19.064;2024-03-08T05:27:13;36.63;;;22.02;;
82005;SDS011;71529;47.484;19.064;2024-03-08T05:29:42;44.53;;;25.55;;
82005;SDS011;71529;47.484;19.064;2024-03-08T05:32:09;38.80;;;23.50;;
82005;SDS011;71529;47.484;19.064;2024-03-08T05:34:38;47.90;;;24.65;;
82005;SDS011;71529;47.484;19.064;2024-03-08T05:37:09;39.03;;;22.33;;
82005;SDS011;71529;47.484;19.064;2024-03-08T05:39:38;47.05;;;25.25;;
82005;SDS011;71529;47.484;19.064;2024-03-08T05:42:08;38.33;;;22.85;;
82005;SDS011;71529;47.484;19.064;2024-03-08T05:44:37;36.65;;;22.60;;
82005;SDS011;71529;47.484;19.064;2024-03-08T05:47:05;35.47;;;22.45;;
82005;SDS011;71529;47.484;19.064;2024-03-08T05:49:35;41.10;;;25.00;;
82005;SDS011;71529;47.484;19.064;2024-03-08T05:52:05;41.08;;;22.77;;
82005;SDS011;71529;47.484;19.064;2024-03-08T05:54:37;41.28;;;23.10;;
82005;SDS011;71529;47.484;19.064;2024-03-08T05:57:06;43.90;;;24.75;;
82005;SDS011;71529;47.484;19.064;2024-03-08T05:59:36;41.83;;;23.92;;
82005;SDS011;71529;47.484;19.064;2024-03-08T06:02:05;39.70;;;24.50;;
82005;SDS011;71529;47.484;19.064;2024-03-08T06:04:34;48.00;;;24.52;;
82005;SDS011;71529;47.484;19.064;2024-03-08T06:07:04;41.00;;;24.42;;
82005;SDS011;71529;47.484;19.064;2024-03-08T06:09:40;42.53;;;23.17;;
82005;SDS011;71529;47.484;19.064;2024-03-08T06:14:44;40.33;;;21.95;;
82005;SDS011;71529;47.484;19.064;2024-03-08T06:17:13;40.72;;;23.17;;
82005;SDS011;71529;47.484;19.064;2024-03-08T06:19:43;45.08;;;25.02;;
82005;SDS011;71529;47.484;19.064;2024-03-08T06:22:12;44.40;;;24.00;;
82005;SDS011;71529;47.484;19.064;2024-03-08T06:24:44;38.58;;;22.80;;
82005;SDS011;71529;47.484;19.064;2024-03-08T06:27:13;43.15;;;24.95;;
82005;SDS011;71529;47.484;19.064;2024-03-08T06:29:42;40.50;;;22.08;;
82005;SDS011;71529;47.484;19.064;2024-03-08T06:32:11;38.28;;;22.75;;
82005;SDS011;71529;47.484;19.064;2024-03-08T06:34:41;38.78;;;23.75;;
82005;SDS011;71529;47.484;19.064;2024-03-08T06:37:10;38.17;;;22.88;;
82005;SDS011;71529;47.484;19.064;2024-03-08T06:39:40;40.45;;;23.63;;
82005;SDS011;71529;47.484;19.064;2024-03-08T06:42:13;40.53;;;22.45;;
82005;SDS011;71529;47.484;19.064;2024-03-08T06:44:42;41.97;;;26.38;;
82005;SDS011;71529;47.484;19.064;2024-03-08T06:47:14;35.15;;;22.20;;
82005;SDS011;71529;47.484;19.064;2024-03-08T06:49:59;37.97;;;22.88;;
82005;SDS011;71529;47.484;19.064;2024-03-08T06:52:29;37.75;;;21.40;;
82005;SDS011;71529;47.484;19.064;2024-03-08T06:54:59;41.85;;;22.70;;
82005;SDS011;71529;47.484;19.064;2024-03-08T06:57:31;40.95;;;22.33;;
82005;SDS011;71529;47.484;19.064;2024-03-08T07:00:00;43.25;;;24.77;;
82005;SDS011;71529;47.484;19.064;2024-03-08T07:02:29;39.17;;;24.23;;
82005;SDS011;71529;47.484;19.064;2024-03-08T07:04:59;45.70;;;24.90;;
82005;SDS011;71529;47.484;19.064;2024-03-08T07:07:29;36.33;;;22.58;;
82005;SDS011;71529;47.484;19.064;2024-03-08T07:09:59;50.25;;;24.33;;
82005;SDS011;71529;47.484;19.064;2024-03-08T07:12:27;48.42;;;23.45;;
82005;SDS011;71529;47.484;19.064;2024-03-08T07:14:59;37.55;;;22.50;;
82005;SDS011;71529;47.484;19.064;2024-03-08T07:17:28;39.30;;;23.23;;
82005;SDS011;71529;47.484;19.064;2024-03-08T07:19:57;44.65;;;24.38;;
82005;SDS011;71529;47.484;19.064;2024-03-08T07:22:32;44.08;;;24.02;;
82005;SDS011;71529;47.484;19.064;2024-03-08T07:25:04;40.03;;;23.88;;
82005;SDS011;71529;47.484;19.064;2024-03-08T07:27:48;53.50;;;28.25;;
82005;SDS011;71529;47.484;19.064;2024-03-08T07:30:18;46.45;;;24.88;;
82005;SDS011;71529;47.484;19.064;2024-03-08T07:32:59;47.08;;;25.38;;
82005;SDS011;71529;47.484;19.064;2024-03-08T07:35:29;49.75;;;26.35;;
82005;SDS011;71529;47.484;19.064;2024-03-08T07:37:58;49.65;;;26.02;;
82005;SDS011;71529;47.484;19.064;2024-03-08T07:40:28;42.30;;;23.55;;
82005;SDS011;71529;47.484;19.064;2024-03-08T07:42:59;48.40;;;25.17;;
82005;SDS011;71529;47.484;19.064;2024-03-08T07:45:28;43.45;;;25.65;;
82005;SDS011;71529;47.484;19.064;2024-03-08T07:47:58;45.80;;;25.50;;
82005;SDS011;71529;47.484;19.064;2024-03-08T07:50:27;49.67;;;25.27;;
82005;SDS011;71529;47.484;19.064;2024-03-08T07:52:56;53.55;;;25.55;;
82005;SDS011;71529;47.484;19.064;2024-03-08T07:55:25;44.13;;;25.45;;
82005;SDS011;71529;47.484;19.064;2024-03-08T07:57:59;43.55;;;25.17;;
82005;SDS011;71529;47.484;19.064;2024-03-08T08:00:28;45.30;;;25.02;;
82005;SDS011;71529;47.484;19.064;2024-03-08T08:02:57;49.58;;;25.42;;
82005;SDS011;71529;47.484;19.064;2024-03-08T08:05:27;46.50;;;25.63;;
82005;SDS011;71529;47.484;19.064;2024-03-08T08:07:58;53.33;;;26.92;;
82005;SDS011;71529;47.484;19.064;2024-03-08T08:10:28;45.60;;;25.35;;
82005;SDS011;71529;47.484;19.064;2024-03-08T08:13:00;55.22;;;26.55;;
82005;SDS011;71529;47.484;19.064;2024-03-08T08:15:29;50.90;;;27.13;;
82005;SDS011;71529;47.484;19.064;2024-03-08T08:17:59;44.90;;;25.38;;
82005;SDS011;71529;47.484;19.064;2024-03-08T08:20:30;54.75;;;26.73;;
82005;SDS011;71529;47.484;19.064;2024-03-08T08:23:00;49.42;;;26.23;;
82005;SDS011;71529;47.484;19.064;2024-03-08T08:25:29;56.25;;;27.70;;
82005;SDS011;71529;47.484;19.064;2024-03-08T08:28:02;50.53;;;25.33;;
82005;SDS011;71529;47.484;19.064;2024-03-08T08:30:32;45.05;;;24.30;;
82005;SDS011;71529;47.484;19.064;2024-03-08T08:33:01;47.08;;;25.63;;
82005;SDS011;71529;47.484;19.064;2024-03-08T08:35:31;50.38;;;26.95;;
82005;SDS011;71529;47.484;19.064;2024-03-08T08:38:00;59.00;;;28.50;;
82005;SDS011;71529;47.484;19.064;2024-03-08T08:40:29;49.78;;;27.52;;
82005;SDS011;71529;47.484;19.064;2024-03-08T08:42:58;50.85;;;26.92;;
82005;SDS011;71529;47.484;19.064;2024-03-08T08:45:33;48.30;;;26.80;;
82005;SDS011;71529;47.484;19.064;2024-03-08T08:48:02;51.03;;;27.08;;
82005;SDS011;71529;47.484;19.064;2024-03-08T08:50:31;51.97;;;28.08;;
82005;SDS011;71529;47.484;19.064;2024-03-08T08:53:00;51.05;;;26.60;;
82005;SDS011;71529;47.484;19.064;2024-03-08T08:55:30;46.80;;;27.05;;
82005;SDS011;71529;47.484;19.064;2024-03-08T08:58:01;50.83;;;27.58;;
82005;SDS011;71529;47.484;19.064;2024-03-08T09:00:35;47.20;;;26.88;;
82005;SDS011;71529;47.484;19.064;2024-03-08T09:03:04;48.70;;;26.92;;
82005;SDS011;71529;47.484;19.064;2024-03-08T09:05:35;52.10;;;27.35;;
82005;SDS011;71529;47.484;19.064;2024-03-08T09:08:04;54.90;;;27.60;;
82005;SDS011;71529;47.484;19.064;2024-03-08T09:10:34;52.30;;;26.73;;
82005;SDS011;71529;47.484;19.064;2024-03-08T09:13:05;44.97;;;25.60;;
82005;SDS011;71529;47.484;19.064;2024-03-08T09:15:38;48.75;;;25.67;;
82005;SDS011;71529;47.484;19.064;2024-03-08T09:18:07;58.55;;;26.58;;
82005;SDS011;71529;47.484;19.064;2024-03-08T09:20:36;51.40;;;26.63;;
82005;SDS011;71529;47.484;19.064;2024-03-08T09:23:07;49.90;;;27.23;;
82005;SDS011;71529;47.484;19.064;2024-03-08T09:25:36;50.47;;;28.20;;
82005;SDS011;71529;47.484;19.064;2024-03-08T09:28:05;51.55;;;27.40;;
82005;SDS011;71529;47.484;19.064;2024-03-08T09:30:34;48.25;;;27.02;;
82005;SDS011;71529;47.484;19.064;2024-03-08T09:33:07;50.03;;;27.90;;
82005;SDS011;71529;47.484;19.064;2024-03-08T09:35:35;47.58;;;26.08;;
82005;SDS011;71529;47.484;19.064;2024-03-08T09:38:04;49.67;;;25.45;;
82005;SDS011;71529;47.484;19.064;2024-03-08T09:40:38;41.63;;;24.30;;
82005;SDS011;71529;47.484;19.064;2024-03-08T09:43:07;47.75;;;24.67;;
82005;SDS011;71529;47.484;19.064;2024-03-08T09:45:37;46.47;;;24.92;;
82005;SDS011;71529;47.484;19.064;2024-03-08T09:48:11;47.22;;;27.70;;
82005;SDS011;71529;47.484;19.064;2024-03-08T09:50:41;44.17;;;26.00;;
82005;SDS011;71529;47.484;19.064;2024-03-08T09:53:10;42.80;;;23.75;;
82005;SDS011;71529;47.484;19.064;2024-03-08T09:55:40;50.70;;;25.92;;
82005;SDS011;71529;47.484;19.064;2024-03-08T09:58:11;52.20;;;25.75;;
82005;SDS011;71529;47.484;19.064;2024-03-08T10:01:02;45.58;;;25.73;;
82005;SDS011;71529;47.484;19.064;2024-03-08T10:03:34;56.45;;;27.05;;
82005;SDS011;71529;47.484;19.064;2024-03-08T10:06:03;45.35;;;25.00;;
82005;SDS011;71529;47.484;19.064;2024-03-08T10:08:35;47.80;;;25.27;;
82005;SDS011;71529;47.484;19.064;2024-03-08T10:11:05;41.53;;;24.38;;
82005;SDS011;71529;47.484;19.064;2024-03-08T10:13:34;38.72;;;24.83;;
82005;SDS011;71529;47.484;19.064;2024-03-08T10:16:03;61.63;;;23.77;;
82005;SDS011;71529;47.484;19.064;2024-03-08T10:18:37;43.13;;;23.40;;
82005;SDS011;71529;47.484;19.064;2024-03-08T10:21:07;46.35;;;24.10;;
82005;SDS011;71529;47.484;19.064;2024-03-08T10:23:37;42.80;;;24.13;;
82005;SDS011;71529;47.484;19.064;2024-03-08T10:26:11;42.72;;;25.30;;
82005;SDS011;71529;47.484;19.064;2024-03-08T10:28:43;39.53;;;23.63;;
82005;SDS011;71529;47.484;19.064;2024-03-08T10:31:13;41.47;;;24.02;;
82005;SDS011;71529;47.484;19.064;2024-03-08T10:33:45;42.95;;;24.90;;
82005;SDS011;71529;47.484;19.064;2024-03-08T10:36:14;43.88;;;25.58;;
82005;SDS011;71529;47.484;19.064;2024-03-08T10:38:44;44.08;;;23.60;;
82005;SDS011;71529;47.484;19.064;2024-03-08T10:41:15;43.65;;;23.30;;
82005;SDS011;71529;47.484;19.064;2024-03-08T10:43:50;37.95;;;22.05;;
82005;SDS011;71529;47.484;19.064;2024-03-08T10:46:36;36.03;;;23.00;;
82005;SDS011;71529;47.484;19.064;2024-03-08T10:49:18;44.40;;;24.98;;
82005;SDS011;71529;47.484;19.064;2024-03-08T10:51:54;39.00;;;23.40;;
82005;SDS011;71529;47.484;19.064;2024-03-08T10:54:26;43.95;;;23.75;;
82005;SDS011;71529;47.484;19.064;2024-03-08T10:56:55;43.42;;;23.08;;
82005;SDS011;71529;47.484;19.064;2024-03-08T10:59:24;37.30;;;22.52;;
82005;SDS011;71529;47.484;19.064;2024-03-08T11:01:55;40.63;;;22.58;;
82005;SDS011;71529;47.484;19.064;2024-03-08T11:04:27;36.90;;;23.73;;
82005;SDS011;71529;47.484;19.064;2024-03-08T11:07:00;37.22;;;21.55;;
82005;SDS011;71529;47.484;19.064;2024-03-08T11:09:32;39.95;;;23.63;;
82005;SDS011;71529;47.484;19.064;2024-03-08T11:14:51;39.60;;;23.98;;
82005;SDS011;71529;47.484;19.064;2024-03-08T11:17:21;41.47;;;24.58;;
82005;SDS011;71529;47.484;19.064;2024-03-08T11:19:57;40.75;;;24.13;;
82005;SDS011;71529;47.484;19.064;2024-03-08T11:22:31;39.78;;;22.27;;
82005;SDS011;71529;47.484;19.064;2024-03-08T11:25:02;36.40;;;22.85;;
82005;SDS011;71529;47.484;19.064;2024-03-08T11:27:35;39.10;;;23.23;;
82005;SDS011;71529;47.484;19.064;2024-03-08T11:30:05;38.83;;;23.48;;
82005;SDS011;71529;47.484;19.064;2024-03-08T11:32:38;41.17;;;23.70;;
82005;SDS011;71529;47.484;19.064;2024-03-08T11:35:13;45.53;;;23.92;;
82005;SDS011;71529;47.484;19.064;2024-03-08T11:37:48;36.80;;;21.60;;
82005;SDS011;71529;47.484;19.064;2024-03-08T11:40:17;55.08;;;26.50;;
82005;SDS011;71529;47.484;19.064;2024-03-08T11:42:47;44.10;;;25.48;;
82005;SDS011;71529;47.484;19.064;2024-03-08T11:45:17;50.03;;;24.25;;
82005;SDS011;71529;47.484;19.064;2024-03-08T11:47:47;43.35;;;23.63;;
82005;SDS011;71529;47.484;19.064;2024-03-08T11:50:18;39.60;;;23.65;;
82005;SDS011;71529;47.484;19.064;2024-03-08T11:52:49;34.78;;;22.45;;
82005;SDS011;71529;47.484;19.064;2024-03-08T11:55:19;36.45;;;23.15;;
82005;SDS011;71529;47.484;19.064;2024-03-08T11:57:50;42.05;;;24.48;;
82005;SDS011;71529;47.484;19.064;2024-03-08T12:00:28;40.50;;;25.65;;
82005;SDS011;71529;47.484;19.064;2024-03-08T12:03:01;37.72;;;21.90;;
82005;SDS011;71529;47.484;19.064;2024-03-08T12:05:33;37.03;;;23.95;;
82005;SDS011;71529;47.484;19.064;2024-03-08T12:08:04;36.25;;;23.35;;
82005;SDS011;71529;47.484;19.064;2024-03-08T12:10:38;40.10;;;23.50;;
82005;SDS011;71529;47.484;19.064;2024-03-08T12:13:08;39.38;;;23.25;;
82005;SDS011;71529;47.484;19.064;2024-03-08T12:15:39;38.90;;;22.73;;
82005;SDS011;71529;47.484;19.064;2024-03-08T12:18:10;41.20;;;23.38;;
82005;SDS011;71529;47.484;19.064;2024-03-08T12:20:41;37.17;;;23.90;;
82005;SDS011;71529;47.484;19.064;2024-03-08T12:23:15;38.55;;;23.65;;
82005;SDS011;71529;47.484;19.064;2024-03-08T12:25:44;37.05;;;22.83;;
82005;SDS011;71529;47.484;19.064;2024-03-08T12:28:13;37.72;;;23.13;;
82005;SDS011;71529;47.484;19.064;2024-03-08T12:30:47;35.50;;;23.67;;
82005;SDS011;71529;47.484;19.064;2024-03-08T12:33:18;40.60;;;23.65;;
82005;SDS011;71529;47.484;19.064;2024-03-08T12:35:54;38.25;;;23.50;;
82005;SDS011;71529;47.484;19.064;2024-03-08T12:38:23;35.03;;;21.17;;
82005;SDS011;71529;47.484;19.064;2024-03-08T12:43:27;40.55;;;25.17;;
82005;SDS011;71529;47.484;19.064;2024-03-08T12:45:57;34.75;;;21.20;;
82005;SDS011;71529;47.484;19.064;2024-03-08T12:48:26;33.78;;;22.10;;
82005;SDS011;71529;47.484;19.064;2024-03-08T12:50:58;27.85;;;19.83;;
82005;SDS011;71529;47.484;19.064;2024-03-08T12:53:27;27.20;;;17.52;;
82005;SDS011;71529;47.484;19.064;2024-03-08T12:55:57;27.70;;;18.65;;
82005;SDS011;71529;47.484;19.064;2024-03-08T12:58:25;30.33;;;19.98;;
82005;SDS011;71529;47.484;19.064;2024-03-08T13:00:54;30.75;;;17.80;;
82005;SDS011;71529;47.484;19.064;2024-03-08T13:03:23;27.60;;;16.48;;
82005;SDS011;71529;47.484;19.064;2024-03-08T13:05:53;25.98;;;16.73;;
82005;SDS011;71529;47.484;19.064;2024-03-08T13:08:25;24.30;;;16.20;;
82005;SDS011;71529;47.484;19.064;2024-03-08T13:10:55;25.98;;;17.38;;
82005;SDS011;71529;47.484;19.064;2024-03-08T13:13:25;20.80;;;15.32;;
82005;SDS011;71529;47.484;19.064;2024-03-08T13:15:54;19.38;;;14.93;;
82005;SDS011;71529;47.484;19.064;2024-03-08T13:18:25;26.20;;;14.68;;
82005;SDS011;71529;47.484;19.064;2024-03-08T13:20:55;17.23;;;13.85;;
82005;SDS011;71529;47.484;19.064;2024-03-08T13:23:26;16.92;;;13.13;;
82005;SDS011;71529;47.484;19.064;2024-03-08T13:25:55;19.40;;;14.07;;
82005;SDS011;71529;47.484;19.064;2024-03-08T13:28:24;18.35;;;13.52;;
82005;SDS011;71529;47.484;19.064;2024-03-08T13:30:55;17.35;;;12.27;;
82005;SDS011;71529;47.484;19.064;2024-03-08T13:33:25;24.92;;;16.50;;
82005;SDS011;71529;47.484;19.064;2024-03-08T13:35:54;58.97;;;34.13;;
82005;SDS011;71529;47.484;19.064;2024-03-08T13:38:26;33.10;;;21.58;;
82005;SDS011;71529;47.484;19.064;2024-03-08T13:40:55;36.72;;;23.50;;
82005;SDS011;71529;47.484;19.064;2024-03-08T13:43:23;33.85;;;22.30;;
82005;SDS011;71529;47.484;19.064;2024-03-08T13:45:53;35.17;;;21.70;;
82005;SDS011;71529;47.484;19.064;2024-03-08T13:48:23;30.58;;;19.67;;
82005;SDS011;71529;47.484;19.064;2024-03-08T13:50:52;30.50;;;19.90;;
82005;SDS011;71529;47.484;19.064;2024-03-08T13:53:21;33.20;;;20.58;;
82005;SDS011;71529;47.484;19.064;2024-03-08T13:55:53;32.13;;;20.15;;
82005;SDS011;71529;47.484;19.064;2024-03-08T13:58:22;31.55;;;19.63;;
82005;SDS011;71529;47.484;19.064;2024-03-08T14:00:51;27.10;;;19.27;;
82005;SDS011;71529;47.484;19.064;2024-03-08T14:03:21;29.45;;;19.77;;
82005;SDS011;71529;47.484;19.064;2024-03-08T14:05:50;31.63;;;19.50;;
82005;SDS011;71529;47.484;19.064;2024-03-08T14:08:21;35.15;;;20.38;;
82005;SDS011;71529;47.484;19.064;2024-03-08T14:10:53;33.05;;;20.95;;
82005;SDS011;71529;47.484;19.064;2024-03-08T14:13:22;34.45;;;21.08;;
82005;SDS011;71529;47.484;19.064;2024-03-08T14:15:51;30.25;;;19.77;;
82005;SDS011;71529;47.484;19.064;2024-03-08T14:18:21;35.28;;;21.40;;
82005;SDS011;71529;47.484;19.064;2024-03-08T14:20:51;36.97;;;22.90;;
82005;SDS011;71529;47.484;19.064;2024-03-08T14:23:20;36.13;;;22.25;;
82005;SDS011;71529;47.484;19.064;2024-03-08T14:25:49;38.55;;;23.30;;
82005;SDS011;71529;47.484;19.064;2024-03-08T14:28:21;39.95;;;24.83;;
82005;SDS011;71529;47.484;19.064;2024-03-08T14:30:51;31.80;;;19.48;;
82005;SDS011;71529;47.484;19.064;2024-03-08T14:33:20;31.98;;;19.10;;
82005;SDS011;71529;47.484;19.064;2024-03-08T14:35:51;30.30;;;19.52;;